createdAt,value
2023-08-04T00:00:21.850Z,15.98
2023-08-04T00:02:49.129Z,15.95
2023-08-04T00:05:15.812Z,15.98
2023-08-04T00:07:44.161Z,15.98
2023-08-04T00:10:11.112Z,15.98
2023-08-04T00:12:37.838Z,15.96
2023-08-04T00:15:05.274Z,15.93
2023-08-04T00:17:32.137Z,15.94
2023-08-04T00:19:58.739Z,15.94
2023-08-04T00:22:25.410Z,15.91
2023-08-04T00:24:51.993Z,15.88
2023-08-04T00:27:18.522Z,15.89
2023-08-04T00:29:45.253Z,15.88
2023-08-04T00:32:11.747Z,15.90
2023-08-04T00:34:38.431Z,15.91
2023-08-04T00:37:04.950Z,15.90
2023-08-04T00:39:31.849Z,15.90
2023-08-04T00:41:58.435Z,15.89
2023-08-04T00:44:25.059Z,15.89
2023-08-04T00:46:52.417Z,15.89
2023-08-04T00:49:19.750Z,15.93
2023-08-04T00:51:48.190Z,15.95
2023-08-04T00:54:15.217Z,15.99
2023-08-04T00:56:42.780Z,16.01
2023-08-04T00:59:09.351Z,16.04
2023-08-04T01:01:36.229Z,16.04
2023-08-04T01:04:03.143Z,16.05
2023-08-04T01:06:36.864Z,16.06
2023-08-04T01:09:17.599Z,16.09
2023-08-04T01:11:52.381Z,16.09
2023-08-04T01:14:20.049Z,16.10
2023-08-04T01:16:46.540Z,16.09
2023-08-04T01:19:13.015Z,16.10
2023-08-04T01:21:41.937Z,16.08
2023-08-04T01:24:09.011Z,16.08
2023-08-04T01:26:39.786Z,16.06
2023-08-04T01:29:08.888Z,16.06
2023-08-04T01:31:35.969Z,16.08
2023-08-04T01:34:04.143Z,16.08
2023-08-04T01:36:30.682Z,16.07
2023-08-04T01:38:57.407Z,16.09
2023-08-04T01:41:24.006Z,16.08
2023-08-04T01:43:50.587Z,16.08
2023-08-04T01:46:17.125Z,16.08
2023-08-04T01:48:43.769Z,16.09
2023-08-04T01:51:10.315Z,16.09
2023-08-04T01:53:36.840Z,16.13
2023-08-04T01:56:03.899Z,16.14
2023-08-04T01:58:30.562Z,16.14
2023-08-04T02:00:57.196Z,16.14
2023-08-04T02:03:23.777Z,16.16
2023-08-04T02:05:51.497Z,16.16
2023-08-04T02:08:19.193Z,16.14
2023-08-04T02:10:50.306Z,16.15
2023-08-04T02:13:17.076Z,16.14
2023-08-04T02:15:43.695Z,16.13
2023-08-04T02:18:10.331Z,16.13
2023-08-04T02:20:36.910Z,16.14
2023-08-04T02:23:03.940Z,16.16
2023-08-04T02:25:30.517Z,16.19
2023-08-04T02:27:57.100Z,16.21
2023-08-04T02:30:23.773Z,16.22
2023-08-04T02:32:51.995Z,16.25
2023-08-04T02:35:18.889Z,16.24
2023-08-04T02:37:45.571Z,16.25
2023-08-04T02:40:12.553Z,16.24
2023-08-04T02:42:39.222Z,16.24
2023-08-04T02:45:06.884Z,16.24
2023-08-04T02:47:33.449Z,16.25
2023-08-04T02:50:00.056Z,16.26
2023-08-04T02:52:26.627Z,16.26
2023-08-04T02:54:56.892Z,16.26
2023-08-04T02:57:23.534Z,16.26
2023-08-04T02:59:50.081Z,16.25
2023-08-04T03:02:16.653Z,16.26
2023-08-04T03:04:43.326Z,16.26
2023-08-04T03:07:11.350Z,16.24
2023-08-04T03:09:37.915Z,16.21
2023-08-04T03:12:04.875Z,16.23
2023-08-04T03:14:31.427Z,16.23
2023-08-04T03:16:57.987Z,16.22
2023-08-04T03:19:24.597Z,16.19
2023-08-04T03:21:51.220Z,16.17
2023-08-04T03:24:17.912Z,16.17
2023-08-04T03:26:44.606Z,16.16
2023-08-04T03:29:11.395Z,16.18
2023-08-04T03:31:38.056Z,16.16
2023-08-04T03:34:04.732Z,16.15
2023-08-04T03:36:32.254Z,16.16
2023-08-04T03:38:58.805Z,16.14
2023-08-04T03:41:25.425Z,16.14
2023-08-04T03:43:52.016Z,16.14
2023-08-04T03:46:18.626Z,16.15
2023-08-04T03:48:45.328Z,16.15
2023-08-04T03:51:11.913Z,16.14
2023-08-04T03:53:38.466Z,16.12
2023-08-04T03:56:05.350Z,16.10
2023-08-04T03:58:31.871Z,16.10
2023-08-04T04:00:58.491Z,16.13
2023-08-04T04:03:25.173Z,16.13
2023-08-04T04:05:51.737Z,16.13
2023-08-04T04:08:18.455Z,16.17
2023-08-04T04:10:45.032Z,16.19
2023-08-04T04:13:11.575Z,16.21
2023-08-04T04:15:38.130Z,16.23
2023-08-04T04:18:04.719Z,16.23
2023-08-04T04:20:31.314Z,16.23
2023-08-04T04:22:57.876Z,16.22
2023-08-04T04:25:24.403Z,16.22
2023-08-04T04:27:50.993Z,16.25
2023-08-04T04:30:17.722Z,16.26
2023-08-04T04:32:44.397Z,16.25
2023-08-04T04:35:10.987Z,16.25
2023-08-04T04:37:37.578Z,16.25
2023-08-04T04:40:04.584Z,16.26
2023-08-04T04:42:33.765Z,16.25
2023-08-04T04:45:01.316Z,16.24
2023-08-04T04:47:28.998Z,16.25
2023-08-04T04:49:55.552Z,16.27
2023-08-04T04:52:36.814Z,16.29
2023-08-04T04:55:04.945Z,16.30
2023-08-04T04:57:32.086Z,16.33
2023-08-04T04:59:58.635Z,16.34
2023-08-04T05:02:25.283Z,16.32
2023-08-04T05:04:52.887Z,16.34
2023-08-04T05:07:19.479Z,16.35
2023-08-04T05:09:46.054Z,16.35
2023-08-04T05:12:12.586Z,16.33
2023-08-04T05:14:39.206Z,16.34
2023-08-04T05:17:06.043Z,16.37
2023-08-04T05:19:32.642Z,16.38
2023-08-04T05:21:59.267Z,16.37
2023-08-04T05:24:27.144Z,16.37
2023-08-04T05:26:53.765Z,16.37
2023-08-04T05:29:20.354Z,16.41
2023-08-04T05:31:47.512Z,16.46
2023-08-04T05:34:14.162Z,16.47
2023-08-04T05:36:40.697Z,16.50
2023-08-04T05:39:07.268Z,16.52
2023-08-04T05:41:33.816Z,16.53
2023-08-04T05:44:00.336Z,16.53
2023-08-04T05:46:26.965Z,16.53
2023-08-04T05:48:53.593Z,16.55
2023-08-04T05:51:20.066Z,16.56
2023-08-04T05:53:46.706Z,16.60
2023-08-04T05:56:13.356Z,16.62
2023-08-04T05:58:40.092Z,16.64
2023-08-04T06:01:11.706Z,16.65
2023-08-04T06:03:38.392Z,16.69
2023-08-04T06:06:06.048Z,16.73
2023-08-04T06:08:32.708Z,16.75
2023-08-04T06:10:59.775Z,16.75
2023-08-04T06:13:26.506Z,16.73
2023-08-04T06:15:53.150Z,16.72
2023-08-04T06:18:19.733Z,16.73
2023-08-04T06:20:48.934Z,16.78
2023-08-04T06:23:15.957Z,16.87
2023-08-04T06:25:42.663Z,16.88
2023-08-04T06:28:09.314Z,16.91
2023-08-04T06:30:36.055Z,16.88
2023-08-04T06:33:02.693Z,16.90
2023-08-04T06:35:29.377Z,16.91
2023-08-04T06:37:56.062Z,16.92
2023-08-04T06:40:22.737Z,16.90
2023-08-04T06:42:49.372Z,16.91
2023-08-04T06:45:16.514Z,16.93
2023-08-04T06:47:43.129Z,16.95
2023-08-04T06:50:10.379Z,16.97
2023-08-04T06:52:37.026Z,16.95
2023-08-04T06:55:05.870Z,16.92
2023-08-04T06:57:32.805Z,16.92
2023-08-04T06:59:59.407Z,16.89
2023-08-04T07:02:26.042Z,16.93
2023-08-04T07:04:52.749Z,16.94
2023-08-04T07:07:20.506Z,17.01
2023-08-04T07:09:47.067Z,17.08
2023-08-04T07:12:14.003Z,17.12
2023-08-04T07:14:40.725Z,17.14
2023-08-04T07:17:07.401Z,17.15
2023-08-04T07:19:34.052Z,17.13
2023-08-04T07:22:41.001Z,17.12
2023-08-04T07:25:08.219Z,17.11
2023-08-04T07:27:35.154Z,17.11
2023-08-04T07:30:01.898Z,17.16
2023-08-04T07:32:31.711Z,17.23
2023-08-04T07:34:58.337Z,17.28
2023-08-04T07:37:25.074Z,17.36
2023-08-04T07:39:51.714Z,17.44
2023-08-04T07:42:18.370Z,17.51
2023-08-04T07:44:45.015Z,17.58
2023-08-04T07:47:12.653Z,17.69
2023-08-04T07:49:39.320Z,17.74
2023-08-04T07:52:06.698Z,17.75
2023-08-04T07:58:00.764Z,17.78
2023-08-04T08:00:58.652Z,17.83
2023-08-04T08:03:43.499Z,17.94
2023-08-04T08:06:10.701Z,17.96
2023-08-04T08:08:51.186Z,17.98
2023-08-04T08:11:17.967Z,18.03
2023-08-04T08:13:44.729Z,18.08
2023-08-04T08:16:18.678Z,18.12
2023-08-04T08:18:46.493Z,18.17
2023-08-04T08:21:14.023Z,18.17
2023-08-04T08:23:42.667Z,18.15
2023-08-04T08:26:09.335Z,18.13
2023-08-04T08:28:36.223Z,18.15
2023-08-04T08:31:02.908Z,18.17
2023-08-04T08:33:29.637Z,18.18
2023-08-04T08:35:57.188Z,18.23
2023-08-04T08:38:23.847Z,18.22
2023-08-04T08:40:50.487Z,18.23
2023-08-04T08:43:17.418Z,18.26
2023-08-04T08:45:45.657Z,18.33
2023-08-04T08:48:12.770Z,18.41
2023-08-04T08:50:41.948Z,18.48
2023-08-04T08:53:14.758Z,18.47
2023-08-04T08:55:41.952Z,18.35
2023-08-04T08:58:09.546Z,18.27
2023-08-04T09:00:36.454Z,18.18
2023-08-04T09:03:09.998Z,18.15
2023-08-04T09:05:36.896Z,18.20
2023-08-04T09:08:04.333Z,18.28
2023-08-04T09:10:33.473Z,18.38
2023-08-04T09:13:01.643Z,18.39
2023-08-04T09:15:35.624Z,18.40
2023-08-04T09:18:07.735Z,18.44
2023-08-04T09:20:34.457Z,18.37
2023-08-04T09:23:01.848Z,18.40
2023-08-04T09:25:28.512Z,18.41
2023-08-04T09:27:56.775Z,18.44
2023-08-04T09:30:23.788Z,18.48
2023-08-04T09:32:52.057Z,18.49
2023-08-04T09:35:18.871Z,18.54
2023-08-04T09:37:45.619Z,18.61
2023-08-04T09:40:16.593Z,18.73
2023-08-04T09:42:44.104Z,18.80
2023-08-04T09:45:18.441Z,18.88
2023-08-04T09:47:50.344Z,18.95
2023-08-04T09:50:19.726Z,19.06
2023-08-04T09:52:46.924Z,19.24
2023-08-04T09:55:13.760Z,19.42
2023-08-04T09:57:40.606Z,19.57
2023-08-04T10:00:09.885Z,19.66
2023-08-04T10:02:38.238Z,19.79
2023-08-04T10:05:05.685Z,19.78
2023-08-04T10:07:32.840Z,19.74
2023-08-04T10:10:01.904Z,19.63
2023-08-04T10:12:30.379Z,19.54
2023-08-04T10:14:57.913Z,19.52
2023-08-04T10:17:26.404Z,19.52
2023-08-04T10:20:05.226Z,19.56
2023-08-04T10:22:33.471Z,19.60
2023-08-04T10:25:00.531Z,19.55
2023-08-04T10:27:28.009Z,19.47
2023-08-04T10:30:12.050Z,19.36
2023-08-04T10:32:40.706Z,19.29
2023-08-04T10:35:18.653Z,19.13
2023-08-04T10:37:47.751Z,18.92
2023-08-04T10:40:14.473Z,18.82
2023-08-04T10:43:07.331Z,18.77
2023-08-04T10:46:12.120Z,18.76
2023-08-04T10:48:41.855Z,18.72
2023-08-04T10:51:09.664Z,18.67
2023-08-04T10:53:36.977Z,18.64
2023-08-04T10:56:08.397Z,18.59
2023-08-04T10:58:37.270Z,18.52
2023-08-04T11:01:04.096Z,18.46
2023-08-04T11:03:34.649Z,18.41
2023-08-04T11:06:01.724Z,18.35
2023-08-04T11:08:28.624Z,18.35
2023-08-04T11:10:58.529Z,18.39
2023-08-04T11:13:26.752Z,18.42
2023-08-04T11:15:55.152Z,18.46
2023-08-04T11:18:28.513Z,18.46
2023-08-04T11:20:55.530Z,18.53
2023-08-04T11:23:28.458Z,18.61
2023-08-04T11:26:14.877Z,18.72
2023-08-04T11:28:41.661Z,18.94
2023-08-04T11:31:10.104Z,19.14
2023-08-04T11:34:09.008Z,19.37
2023-08-04T11:36:33.592Z,19.28
2023-08-04T11:39:00.322Z,19.20
2023-08-04T11:41:28.931Z,19.31
2023-08-04T11:43:55.752Z,19.58
2023-08-04T11:46:22.764Z,19.58
2023-08-04T11:48:49.420Z,19.53
2023-08-04T11:51:17.431Z,19.52
2023-08-04T11:53:48.324Z,19.50
2023-08-04T11:56:29.681Z,19.40
2023-08-04T11:59:09.992Z,19.33
2023-08-04T12:01:36.816Z,19.23
2023-08-04T12:04:20.410Z,19.20
2023-08-04T12:06:47.112Z,19.21
2023-08-04T12:09:13.879Z,19.26
2023-08-04T12:11:51.257Z,19.44
2023-08-04T12:14:18.496Z,19.70
2023-08-04T12:16:53.609Z,20.07
2023-08-04T12:19:21.984Z,20.04
2023-08-04T12:21:54.829Z,19.92
2023-08-04T12:24:22.455Z,19.87
2023-08-04T12:27:10.775Z,19.86
2023-08-04T12:30:06.076Z,19.87
2023-08-04T12:35:20.480Z,20.13
2023-08-04T12:37:53.717Z,20.03
2023-08-04T12:40:20.519Z,19.87
2023-08-04T12:42:47.197Z,19.78
2023-08-04T12:47:54.585Z,19.73
2023-08-04T12:50:29.630Z,19.78
2023-08-04T12:53:03.464Z,19.91
2023-08-04T12:55:30.179Z,20.22
2023-08-04T12:57:56.752Z,20.27
2023-08-04T13:00:44.822Z,20.25
2023-08-04T13:03:11.524Z,20.15
2023-08-04T13:05:40.103Z,20.07
2023-08-04T13:08:08.240Z,20.02
2023-08-04T13:10:35.560Z,20.06
2023-08-04T13:13:02.461Z,20.07
2023-08-04T13:15:29.985Z,20.11
2023-08-04T13:17:59.544Z,20.13
2023-08-04T13:20:28.979Z,20.07
2023-08-04T13:23:33.253Z,20.03
2023-08-04T13:29:18.992Z,20.01
2023-08-04T13:36:19.099Z,20.19
2023-08-04T13:39:43.478Z,20.39
2023-08-04T13:42:14.827Z,20.65
2023-08-04T13:44:41.402Z,20.74
2023-08-04T13:47:07.994Z,20.65
2023-08-04T13:49:34.721Z,20.50
2023-08-04T13:52:01.538Z,20.41
2023-08-04T13:54:29.342Z,20.35
2023-08-04T13:56:55.916Z,20.32
2023-08-04T13:59:22.522Z,20.27
2023-08-04T14:01:49.706Z,20.28
2023-08-04T14:04:16.724Z,20.26
2023-08-04T14:06:43.417Z,20.15
2023-08-04T14:09:10.047Z,20.09
2023-08-04T14:11:36.617Z,20.04
2023-08-04T14:14:04.008Z,19.99
2023-08-04T14:16:30.622Z,19.97
2023-08-04T14:18:57.233Z,20.01
2023-08-04T14:21:23.819Z,20.03
2023-08-04T14:23:50.497Z,20.11
2023-08-04T14:26:17.670Z,20.16
2023-08-04T14:28:45.128Z,20.46
2023-08-04T14:31:11.939Z,20.81
2023-08-04T14:33:38.612Z,20.93
2023-08-04T14:36:05.248Z,20.84
2023-08-04T14:38:31.952Z,20.78
2023-08-04T14:40:59.021Z,20.72
2023-08-04T14:43:26.665Z,20.71
2023-08-04T14:45:55.426Z,20.72
2023-08-04T14:48:22.200Z,20.68
2023-08-04T14:50:48.859Z,20.58
2023-08-04T14:53:15.677Z,20.53
2023-08-04T14:55:42.238Z,20.48
2023-08-04T14:58:08.915Z,20.61
2023-08-04T15:00:36.162Z,20.78
2023-08-04T15:03:02.985Z,20.79
2023-08-04T15:05:36.042Z,20.81
2023-08-04T15:08:02.817Z,20.86
2023-08-04T15:10:30.508Z,20.93
2023-08-04T15:12:57.180Z,20.92
2023-08-04T15:15:23.852Z,21.00
2023-08-04T15:17:50.538Z,21.14
2023-08-04T15:20:17.481Z,21.29
2023-08-04T15:22:45.049Z,21.44
2023-08-04T15:25:11.693Z,21.46
2023-08-04T15:27:44.321Z,21.36
2023-08-04T15:30:11.190Z,21.38
2023-08-04T15:32:37.794Z,21.50
2023-08-04T15:35:04.589Z,21.68
2023-08-04T15:37:31.166Z,21.65
2023-08-04T15:39:58.092Z,21.58
2023-08-04T15:42:24.919Z,21.48
2023-08-04T15:44:51.640Z,21.52
2023-08-04T15:47:18.444Z,21.47
2023-08-04T15:49:45.669Z,21.56
2023-08-04T15:52:12.309Z,21.68
2023-08-04T15:54:38.990Z,21.72
2023-08-04T15:57:05.948Z,21.89
2023-08-04T15:59:32.585Z,22.02
2023-08-04T16:01:59.306Z,22.14
2023-08-04T16:04:25.965Z,22.19
2023-08-04T16:06:52.596Z,22.21
2023-08-04T16:09:19.220Z,22.21
2023-08-04T16:11:45.881Z,22.22
2023-08-04T16:14:12.581Z,22.30
2023-08-04T16:16:39.400Z,22.30
2023-08-04T16:19:06.619Z,22.14
2023-08-04T16:21:33.357Z,21.90
2023-08-04T16:24:00.033Z,21.60
2023-08-04T16:26:26.710Z,21.28
2023-08-04T16:28:53.335Z,21.14
2023-08-04T16:31:20.216Z,20.91
2023-08-04T16:33:47.063Z,20.84
2023-08-04T16:36:13.717Z,21.00
2023-08-04T16:38:40.340Z,21.13
2023-08-04T16:41:06.960Z,21.14
2023-08-04T16:43:33.751Z,21.09
2023-08-04T16:46:00.545Z,20.93
2023-08-04T16:48:27.348Z,20.75
2023-08-04T16:50:55.077Z,20.62
2023-08-04T16:53:21.706Z,20.53
2023-08-04T16:55:51.042Z,20.50
2023-08-04T16:58:19.400Z,20.45
2023-08-04T17:00:46.568Z,20.47
2023-08-04T17:03:16.047Z,20.51
2023-08-04T17:05:42.608Z,20.56
2023-08-04T17:08:09.253Z,20.51
2023-08-04T17:10:40.333Z,20.43
2023-08-04T17:13:07.337Z,20.30
2023-08-04T17:15:37.935Z,20.16
2023-08-04T17:18:05.888Z,20.13
2023-08-04T17:20:32.594Z,20.05
2023-08-04T17:22:59.264Z,19.98
2023-08-04T17:25:26.372Z,19.98
2023-08-04T17:27:53.156Z,20.03
2023-08-04T17:30:19.773Z,20.02
2023-08-04T17:32:46.570Z,19.98
2023-08-04T17:35:13.248Z,19.97
2023-08-04T17:37:39.861Z,19.99
2023-08-04T17:40:07.862Z,20.07
2023-08-04T17:42:34.480Z,20.04
2023-08-04T17:45:01.152Z,19.99
2023-08-04T17:47:27.773Z,19.93
2023-08-04T17:49:54.449Z,19.91
2023-08-04T17:52:21.006Z,19.88
2023-08-04T17:54:47.786Z,19.84
2023-08-04T17:57:15.147Z,19.82
2023-08-04T17:59:42.541Z,19.76
2023-08-04T18:02:10.710Z,19.69
2023-08-04T18:04:37.520Z,19.71
2023-08-04T18:07:04.314Z,19.72
2023-08-04T18:09:31.959Z,19.72
2023-08-04T18:11:58.672Z,19.67
2023-08-04T18:14:25.363Z,19.60
2023-08-04T18:16:52.257Z,19.55
2023-08-04T18:19:19.366Z,19.49
2023-08-04T18:21:46.157Z,19.49
2023-08-04T18:24:12.896Z,19.47
2023-08-04T18:26:40.702Z,19.45
2023-08-04T18:29:07.268Z,19.45
2023-08-04T18:31:33.928Z,19.44
2023-08-04T18:34:00.532Z,19.43
2023-08-04T18:36:27.308Z,19.43
2023-08-04T18:38:53.897Z,19.42
2023-08-04T18:41:21.025Z,19.41
2023-08-04T18:43:47.661Z,19.41
2023-08-04T18:46:14.384Z,19.38
2023-08-04T18:48:41.141Z,19.36
2023-08-04T18:51:07.794Z,19.18
2023-08-04T18:53:34.507Z,19.11
2023-08-04T18:56:01.366Z,19.13
2023-08-04T18:58:28.066Z,19.14
2023-08-04T19:00:54.777Z,19.11
2023-08-04T19:03:21.563Z,19.08
2023-08-04T19:05:48.361Z,19.05
2023-08-04T19:08:15.056Z,19.02
2023-08-04T19:10:42.311Z,18.99
2023-08-04T19:13:09.095Z,18.97
2023-08-04T19:15:35.803Z,18.94
2023-08-04T19:18:02.470Z,18.92
2023-08-04T19:20:29.110Z,18.90
2023-08-04T19:22:55.894Z,18.85
2023-08-04T19:25:22.504Z,18.81
2023-08-04T19:27:49.001Z,18.78
2023-08-04T19:30:17.742Z,18.75
2023-08-04T19:32:44.456Z,18.73
2023-08-04T19:35:11.117Z,18.72
2023-08-04T19:37:38.406Z,18.68
2023-08-04T19:40:05.693Z,18.66
2023-08-04T19:42:32.522Z,18.65
2023-08-04T19:44:59.067Z,18.63
2023-08-04T19:47:25.788Z,18.63
2023-08-04T19:49:53.256Z,18.62
2023-08-04T19:52:19.878Z,18.60
2023-08-04T19:54:46.498Z,18.58
2023-08-04T19:57:15.804Z,18.55
2023-08-04T19:59:42.809Z,18.53
2023-08-04T20:02:09.359Z,18.49
2023-08-04T20:04:38.740Z,18.50
2023-08-04T20:07:07.609Z,18.49
2023-08-04T20:09:34.279Z,18.46
2023-08-04T20:12:01.020Z,18.40
2023-08-04T20:14:27.653Z,18.39
2023-08-04T20:16:54.305Z,18.37
2023-08-04T20:19:20.965Z,18.34
2023-08-04T20:21:48.642Z,18.33
2023-08-04T20:24:38.678Z,18.30
2023-08-04T20:27:06.688Z,18.24
2023-08-04T20:29:35.931Z,18.23
2023-08-04T20:32:03.930Z,18.22
2023-08-04T20:34:30.523Z,18.22
2023-08-04T20:37:00.689Z,18.20
2023-08-04T20:39:27.334Z,18.15
2023-08-04T20:41:54.391Z,18.10
2023-08-04T20:44:20.995Z,18.02
2023-08-04T20:46:47.814Z,18.02
2023-08-04T20:49:16.763Z,18.01
2023-08-04T20:51:43.430Z,18.02
2023-08-04T20:54:10.114Z,17.97
2023-08-04T20:56:36.836Z,17.90
2023-08-04T20:59:03.604Z,17.87
2023-08-04T21:01:30.197Z,17.86
2023-08-04T21:03:56.990Z,17.85
2023-08-04T21:06:23.648Z,17.84
2023-08-04T21:08:50.324Z,17.86
2023-08-04T21:11:19.550Z,17.85
2023-08-04T21:13:46.463Z,17.83
2023-08-04T21:16:13.129Z,17.81
2023-08-04T21:18:40.038Z,17.80
2023-08-04T21:21:08.041Z,17.79
2023-08-04T21:23:34.696Z,17.76
2023-08-04T21:26:04.261Z,17.77
2023-08-04T21:28:30.818Z,17.76
2023-08-04T21:30:57.447Z,17.78
2023-08-04T21:33:24.018Z,17.79
2023-08-04T21:36:10.501Z,17.77
2023-08-04T21:38:37.123Z,17.74
2023-08-04T21:41:05.814Z,17.73
2023-08-04T21:43:33.058Z,17.71
2023-08-04T21:46:11.471Z,17.71
2023-08-04T21:48:38.581Z,17.69
2023-08-04T21:51:15.538Z,17.68
2023-08-04T21:53:42.704Z,17.64
2023-08-04T21:56:09.519Z,17.60
2023-08-04T21:58:36.175Z,17.58
2023-08-04T22:01:06.794Z,17.56
2023-08-04T22:03:34.321Z,17.54
2023-08-04T22:06:01.161Z,17.51
2023-08-04T22:08:27.688Z,17.49
2023-08-04T22:10:54.303Z,17.47
2023-08-04T22:13:20.859Z,17.45
2023-08-04T22:15:47.470Z,17.42
2023-08-04T22:18:14.018Z,17.36
2023-08-04T22:20:40.775Z,17.31
2023-08-04T22:23:07.337Z,17.31
2023-08-04T22:25:34.072Z,17.28
2023-08-04T22:28:00.688Z,17.24
2023-08-04T22:30:27.285Z,17.23
2023-08-04T22:32:53.870Z,17.20
2023-08-04T22:35:20.508Z,17.17
2023-08-04T22:37:52.084Z,17.15
2023-08-04T22:40:18.565Z,17.15
2023-08-04T22:42:45.140Z,17.10
2023-08-04T22:45:11.755Z,17.09
2023-08-04T22:47:38.384Z,17.07
2023-08-04T22:50:05.322Z,17.07
2023-08-04T22:52:31.911Z,17.04
2023-08-04T22:54:58.586Z,17.04
2023-08-04T22:57:25.170Z,17.07
2023-08-04T22:59:52.104Z,17.06
2023-08-04T23:02:18.862Z,17.00
2023-08-04T23:04:45.454Z,16.99
2023-08-04T23:07:12.084Z,17.00
2023-08-04T23:09:43.192Z,17.01
2023-08-04T23:12:09.927Z,17.02
2023-08-04T23:14:36.465Z,17.02
2023-08-04T23:17:03.208Z,17.01
2023-08-04T23:19:29.860Z,16.99
2023-08-04T23:21:56.436Z,16.97
2023-08-04T23:24:23.114Z,16.96
2023-08-04T23:26:50.622Z,16.92
2023-08-04T23:29:18.569Z,16.90
2023-08-04T23:31:46.189Z,16.87
2023-08-04T23:34:12.738Z,16.84
2023-08-04T23:36:39.415Z,16.78
2023-08-04T23:39:05.976Z,16.78
2023-08-04T23:41:32.559Z,16.77
2023-08-04T23:43:59.108Z,16.76
2023-08-04T23:46:26.267Z,16.75
2023-08-04T23:48:52.977Z,16.75
2023-08-04T23:51:19.576Z,16.74
2023-08-04T23:53:46.164Z,16.72
2023-08-04T23:56:12.705Z,16.74
2023-08-04T23:58:39.453Z,16.72
